Time;durP1;ratioP1;P1;durP2;ratioP2;P2;SDS_P1;SDS_P2;PMS_P1;PMS_P2;Temp;Humidity;BMP_temperature;BMP_pressure;BME280_temperature;BME280_humidity;BME280_pressure;Samples;Min_cycle;Max_cycle;Signal;HPM_P1;HPM_P2
2022/10/13 00:01:23;;;;;;;19.60;11.15;;;9.70;99.90;;;;;;4945096;28;20056;-72
2022/10/13 00:03:49;;;;;;;23.90;11.50;;;9.70;99.90;;;;;;4976889;28;20077;-72
2022/10/13 00:06:18;;;;;;;21.88;11.15;;;9.70;99.90;;;;;;4961021;28;20089;-72
2022/10/13 00:08:44;;;;;;;22.13;11.52;;;9.60;99.90;;;;;;4976923;28;20077;-72
2022/10/13 00:11:10;;;;;;;22.02;10.43;;;9.70;99.90;;;;;;4977178;28;20046;-72
2022/10/13 00:13:36;;;;;;;21.15;11.52;;;9.70;99.90;;;;;;4991945;28;20046;-72
2022/10/13 00:16:02;;;;;;;26.83;11.73;;;9.70;99.90;;;;;;4976987;28;20053;-72
2022/10/13 00:18:28;;;;;;;24.90;12.48;;;9.70;99.90;;;;;;4976874;28;20038;-72
2022/10/13 00:20:53;;;;;;;18.63;10.55;;;9.70;99.90;;;;;;4945024;28;20078;-72
2022/10/13 00:23:19;;;;;;;24.63;11.50;;;9.70;99.90;;;;;;4976909;28;20475;-72
2022/10/13 00:25:48;;;;;;;24.15;11.40;;;9.70;99.90;;;;;;4960674;28;20042;-72
2022/10/13 00:28:15;;;;;;;24.13;11.95;;;9.70;99.90;;;;;;4976622;28;20045;-73
2022/10/13 00:30:42;;;;;;;21.45;12.20;;;9.70;99.90;;;;;;4944321;28;20052;-72
2022/10/13 00:33:09;;;;;;;22.70;11.82;;;9.70;99.90;;;;;;4976928;28;20034;-72
2022/10/13 00:35:40;;;;;;;24.98;11.52;;;9.70;99.90;;;;;;4976680;28;20038;-72
2022/10/13 00:38:05;;;;;;;21.00;11.20;;;9.70;99.90;;;;;;4976893;28;20514;-72
2022/10/13 00:40:31;;;;;;;20.63;11.88;;;9.60;99.90;;;;;;4976631;28;20069;-72
2022/10/13 00:42:57;;;;;;;23.00;11.75;;;9.60;99.90;;;;;;4944724;28;20053;-72
2022/10/13 00:45:26;;;;;;;26.75;12.50;;;9.70;99.90;;;;;;4960707;28;20137;-72
2022/10/13 00:47:59;;;;;;;27.88;11.80;;;9.70;99.90;;;;;;4960355;28;20120;-72
2022/10/13 00:50:30;;;;;;;26.58;12.27;;;9.70;99.90;;;;;;4976692;28;20034;-74
2022/10/13 00:53:00;;;;;;;25.35;11.65;;;9.70;99.90;;;;;;4976312;28;20065;-72
2022/10/13 00:55:29;;;;;;;25.20;11.85;;;9.80;99.90;;;;;;4960440;28;20418;-74
2022/10/13 00:57:59;;;;;;;26.10;12.48;;;9.80;99.90;;;;;;4960541;28;20454;-72
2022/10/13 01:00:25;;;;;;;29.15;13.40;;;9.70;99.90;;;;;;4976528;28;20077;-72
2022/10/13 01:02:51;;;;;;;27.10;12.70;;;9.70;99.90;;;;;;4976206;28;20084;-72
2022/10/13 01:05:19;;;;;;;23.77;12.60;;;10.00;99.90;;;;;;4976493;28;20046;-73
2022/10/13 01:07:48;;;;;;;25.90;13.30;;;9.70;99.90;;;;;;4963936;28;20085;-72
2022/10/13 01:10:23;;;;;;;27.35;12.73;;;9.60;99.90;;;;;;4980525;28;20058;-72
2022/10/13 01:13:05;;;;;;;30.13;12.88;;;9.60;99.90;;;;;;4964107;28;20046;-72
2022/10/13 01:15:43;;;;;;;23.83;12.55;;;9.60;99.90;;;;;;4980169;28;20042;-72
2022/10/13 01:18:20;;;;;;;28.02;13.52;;;9.60;99.90;;;;;;4980493;28;20042;-72
2022/10/13 01:20:58;;;;;;;30.75;14.45;;;9.60;99.90;;;;;;4980047;28;20080;-72
2022/10/13 01:23:35;;;;;;;28.38;13.23;;;9.50;99.90;;;;;;4980252;28;20034;-72
2022/10/13 01:26:13;;;;;;;25.48;13.55;;;9.60;99.90;;;;;;4964164;28;20049;-73
2022/10/13 01:29:10;;;;;;;26.92;13.45;;;9.60;99.90;;;;;;4963854;28;20101;-72
2022/10/13 01:31:42;;;;;;;28.20;13.93;;;9.60;99.90;;;;;;4980063;28;20038;-73
2022/10/13 01:34:20;;;;;;;29.40;13.98;;;9.60;99.90;;;;;;4980096;28;20042;-72
2022/10/13 01:36:55;;;;;;;26.05;13.30;;;9.60;99.90;;;;;;4979871;28;20058;-72
2022/10/13 01:39:27;;;;;;;21.95;12.60;;;9.60;99.90;;;;;;4980007;28;20049;-72
2022/10/13 01:42:00;;;;;;;26.00;13.10;;;9.60;99.90;;;;;;4979655;28;20053;-72
2022/10/13 01:44:34;;;;;;;30.23;14.85;;;9.60;99.90;;;;;;4979892;28;20045;-73
2022/10/13 01:47:01;;;;;;;28.13;13.95;;;9.50;99.90;;;;;;4979743;28;20046;-72
2022/10/13 01:49:32;;;;;;;24.35;13.80;;;9.60;99.90;;;;;;4963848;28;20081;-72
2022/10/13 01:52:02;;;;;;;27.65;13.23;;;9.60;99.90;;;;;;4979387;28;20077;-73
2022/10/13 01:54:27;;;;;;;30.27;14.43;;;9.60;99.90;;;;;;4979710;28;20054;-72
2022/10/13 01:56:54;;;;;;;28.23;14.30;;;9.60;99.90;;;;;;4979457;28;20085;-72
2022/10/13 01:59:23;;;;;;;24.92;13.57;;;9.60;99.90;;;;;;4963521;28;20046;-73
2022/10/13 02:02:14;;;;;;;27.20;14.82;;;9.60;99.90;;;;;;4979268;28;20494;-72
2022/10/13 02:04:52;;;;;;;;;;;9.60;99.90;;;;;;4979824;28;20507;-72
2022/10/13 02:07:38;;;;;;;30.58;13.77;;;9.60;99.90;;;;;;4963229;28;20354;-72
2022/10/13 02:10:22;;;;;;;26.63;13.93;;;9.60;99.90;;;;;;4962702;28;20109;-72
2022/10/13 02:12:50;;;;;;;25.15;13.98;;;9.60;99.90;;;;;;4979270;28;20134;-72
2022/10/13 02:15:22;;;;;;;29.45;14.30;;;9.50;99.90;;;;;;4962926;28;20040;-72
2022/10/13 02:17:50;;;;;;;28.88;14.00;;;9.50;99.90;;;;;;4979163;28;20054;-72
2022/10/13 02:20:16;;;;;;;28.42;13.43;;;9.50;99.90;;;;;;4979232;28;20077;-72
2022/10/13 02:22:46;;;;;;;25.98;13.25;;;9.50;99.90;;;;;;4979023;28;20054;-72
2022/10/13 02:25:12;;;;;;;31.05;14.35;;;9.50;99.90;;;;;;4978852;28;20054;-72
2022/10/13 02:27:38;;;;;;;26.27;13.95;;;9.50;99.90;;;;;;4978800;28;20053;-73
2022/10/13 02:30:04;;;;;;;24.92;14.30;;;9.50;99.90;;;;;;4978992;28;20133;-72
2022/10/13 02:32:30;;;;;;;27.20;14.23;;;9.50;99.90;;;;;;4979048;28;20129;-73
2022/10/13 02:34:56;;;;;;;33.45;14.98;;;9.50;99.90;;;;;;4978800;28;20493;-72
2022/10/13 02:37:24;;;;;;;25.67;14.18;;;9.50;99.90;;;;;;4962683;28;20137;-72
2022/10/13 02:39:50;;;;;;;28.27;14.82;;;9.50;99.90;;;;;;4962624;28;20471;-72
2022/10/13 02:42:16;;;;;;;29.45;14.25;;;9.50;99.90;;;;;;4962696;28;20053;-72
2022/10/13 02:44:41;;;;;;;26.10;14.60;;;9.50;99.90;;;;;;4962690;28;20057;-73
2022/10/13 02:47:07;;;;;;;32.75;15.18;;;9.50;99.90;;;;;;4978664;28;20378;-72
2022/10/13 02:49:33;;;;;;;28.50;14.25;;;9.50;99.90;;;;;;4962653;28;20042;-72
2022/10/13 02:51:58;;;;;;;28.23;14.70;;;9.50;99.90;;;;;;4978114;28;20439;-72
2022/10/13 02:54:24;;;;;;;30.48;15.55;;;9.50;99.90;;;;;;4978640;28;20050;-72
2022/10/13 02:56:50;;;;;;;31.48;14.75;;;9.50;99.90;;;;;;4962245;28;20052;-72
2022/10/13 02:59:15;;;;;;;28.02;14.93;;;9.50;99.90;;;;;;4962553;28;20165;-73
2022/10/13 03:01:43;;;;;;;32.42;14.85;;;9.50;99.90;;;;;;4978545;28;20387;-72
2022/10/13 03:04:10;;;;;;;29.35;14.50;;;9.50;99.90;;;;;;4978452;28;20129;-73
2022/10/13 03:06:36;;;;;;;31.20;14.85;;;9.50;99.90;;;;;;4978324;28;20049;-73
2022/10/13 03:09:02;;;;;;;29.65;15.30;;;9.40;99.90;;;;;;4978202;28;20265;-72
2022/10/13 03:11:28;;;;;;;29.17;14.82;;;9.50;99.90;;;;;;4978248;28;20046;-72
2022/10/13 03:13:54;;;;;;;34.20;15.07;;;9.40;99.90;;;;;;4978025;28;20048;-72
2022/10/13 03:16:19;;;;;;;26.70;14.73;;;9.70;99.90;;;;;;4946129;28;20046;-72
2022/10/13 03:18:45;;;;;;;33.35;16.20;;;9.50;99.90;;;;;;4962558;28;20064;-72
2022/10/13 03:21:11;;;;;;;28.92;14.57;;;9.50;99.90;;;;;;4977937;28;20081;-73
2022/10/13 03:23:37;;;;;;;27.15;13.52;;;9.50;99.90;;;;;;4978053;28;20038;-73
2022/10/13 03:26:03;;;;;;;30.88;14.80;;;9.50;99.90;;;;;;4962000;28;20084;-73
2022/10/13 03:28:29;;;;;;;27.30;14.98;;;9.50;99.90;;;;;;4976964;28;20034;-72
2022/10/13 03:31:03;;;;;;;33.70;14.27;;;9.50;99.90;;;;;;4977867;28;20038;-72
2022/10/13 03:33:29;;;;;;;28.65;14.20;;;9.50;99.90;;;;;;4978020;28;20097;-72
2022/10/13 03:36:00;;;;;;;28.10;14.80;;;9.50;99.90;;;;;;4977632;28;20042;-72
2022/10/13 03:38:27;;;;;;;34.63;15.23;;;9.50;99.90;;;;;;4977890;28;20046;-72
2022/10/13 03:40:53;;;;;;;33.50;15.50;;;9.50;99.90;;;;;;4977139;28;20359;-72
2022/10/13 03:43:20;;;;;;;28.02;14.80;;;9.50;99.90;;;;;;4961640;28;20047;-72
2022/10/13 03:45:56;;;;;;;33.13;15.05;;;9.50;99.90;;;;;;4977762;28;20049;-72
2022/10/13 03:48:22;;;;;;;31.83;14.80;;;9.50;99.90;;;;;;4977339;28;20483;-72
2022/10/13 03:50:48;;;;;;;28.50;14.75;;;9.50;99.90;;;;;;4994724;28;20048;-72
2022/10/13 03:53:14;;;;;;;30.52;14.68;;;9.60;99.90;;;;;;4976729;28;20054;-72
2022/10/13 03:55:40;;;;;;;28.73;14.98;;;9.60;99.90;;;;;;4961338;28;20145;-72
2022/10/13 03:58:05;;;;;;;30.45;15.73;;;9.60;99.90;;;;;;4961321;28;20049;-73
2022/10/13 04:00:31;;;;;;;28.25;15.05;;;9.60;99.90;;;;;;4977481;28;20370;-73
2022/10/13 04:02:57;;;;;;;27.95;14.98;;;9.60;99.90;;;;;;4977231;28;20042;-74
2022/10/13 04:05:22;;;;;;;27.63;15.52;;;9.60;99.90;;;;;;4961357;28;20057;-71
2022/10/13 04:07:48;;;;;;;28.75;15.38;;;9.60;99.90;;;;;;4960848;28;20065;-71
2022/10/13 04:10:14;;;;;;;31.75;16.15;;;9.60;99.90;;;;;;4960901;28;20490;-71
2022/10/13 04:12:39;;;;;;;30.13;15.32;;;9.60;99.90;;;;;;4961203;28;20050;-71
2022/10/13 04:15:05;;;;;;;29.38;15.15;;;9.60;99.90;;;;;;4960963;28;20034;-72
2022/10/13 04:17:31;;;;;;;29.65;15.73;;;9.60;99.90;;;;;;4961020;28;20046;-72
2022/10/13 04:19:57;;;;;;;33.33;16.52;;;9.60;99.90;;;;;;4976902;28;20134;-71
2022/10/13 04:22:22;;;;;;;33.60;16.60;;;9.60;99.90;;;;;;4961113;28;20051;-71
2022/10/13 04:24:48;;;;;;;34.08;17.50;;;9.70;99.90;;;;;;4960990;28;20117;-71
2022/10/13 04:27:15;;;;;;;29.88;16.17;;;9.70;99.90;;;;;;4960318;28;20042;-71
2022/10/13 04:29:41;;;;;;;33.85;16.38;;;9.70;99.90;;;;;;4977065;28;20355;-71
2022/10/13 04:32:07;;;;;;;35.70;16.50;;;9.70;99.90;;;;;;4976717;28;20067;-71
2022/10/13 04:34:33;;;;;;;33.47;15.82;;;9.70;99.90;;;;;;4960827;28;20462;-70
2022/10/13 04:36:58;;;;;;;30.20;16.77;;;9.70;99.90;;;;;;4976670;28;20043;-70
2022/10/13 04:39:24;;;;;;;30.65;16.70;;;9.70;99.90;;;;;;4976826;28;20084;-70
2022/10/13 04:41:50;;;;;;;31.67;16.23;;;9.70;99.90;;;;;;4976012;28;20077;-70
2022/10/13 04:44:15;;;;;;;34.33;16.75;;;9.70;99.90;;;;;;4976323;28;20125;-70
2022/10/13 04:46:41;;;;;;;33.88;16.63;;;9.70;99.90;;;;;;4975712;28;20046;-70
2022/10/13 04:49:07;;;;;;;31.38;17.38;;;9.70;99.90;;;;;;4944545;28;20038;-70
2022/10/13 04:51:33;;;;;;;32.38;18.13;;;9.70;99.90;;;;;;4960224;28;20363;-70
2022/10/13 04:54:00;;;;;;;35.13;16.95;;;9.70;99.90;;;;;;4968258;28;20078;-71
2022/10/13 04:56:27;;;;;;;32.45;17.25;;;9.90;99.90;;;;;;4970794;28;20471;-70
2022/10/13 04:58:53;;;;;;;32.35;17.52;;;9.80;99.90;;;;;;4976624;28;20048;-70
2022/10/13 05:01:21;;;;;;;37.55;17.00;;;9.70;99.90;;;;;;4976436;28;20118;-70
2022/10/13 05:03:53;;;;;;;39.63;17.50;;;9.80;99.90;;;;;;4960466;28;20085;-70
2022/10/13 05:06:20;;;;;;;;;;;9.80;99.90;;;;;;4976685;28;20057;-70
2022/10/13 05:08:45;;;;;;;36.45;17.88;;;9.80;99.90;;;;;;4976504;28;20000;-70
2022/10/13 05:11:11;;;;;;;46.55;19.15;;;9.80;99.90;;;;;;4944285;28;20085;-70
2022/10/13 05:13:37;;;;;;;44.17;17.73;;;9.80;99.90;;;;;;4944498;28;20133;-70
2022/10/13 05:16:08;;;;;;;36.35;17.77;;;9.80;99.90;;;;;;4989076;28;20053;-72
2022/10/13 05:18:35;;;;;;;38.58;19.50;;;9.90;99.90;;;;;;4976420;28;20105;-70
2022/10/13 05:21:07;;;;;;;34.22;18.23;;;9.70;99.90;;;;;;4976394;28;20054;-70
2022/10/13 05:23:33;;;;;;;39.08;18.52;;;9.80;99.90;;;;;;4985106;28;20046;-70
2022/10/13 05:26:04;;;;;;;33.80;18.58;;;9.70;99.90;;;;;;4959986;28;20031;-70
2022/10/13 05:28:30;;;;;;;40.70;20.02;;;9.70;99.90;;;;;;4944158;28;20042;-70
2022/10/13 05:30:55;;;;;;;37.13;18.95;;;9.70;99.90;;;;;;4976360;28;20495;-70
2022/10/13 05:33:21;;;;;;;34.45;18.48;;;9.70;99.90;;;;;;4976114;28;20058;-70
2022/10/13 05:35:47;;;;;;;34.53;17.88;;;9.70;99.90;;;;;;4976175;28;20088;-70
2022/10/13 05:38:12;;;;;;;36.60;18.98;;;9.70;99.90;;;;;;4959864;28;20467;-70
2022/10/13 05:40:38;;;;;;;37.22;18.33;;;9.80;99.90;;;;;;4993405;28;20050;-71
2022/10/13 05:43:04;;;;;;;40.67;19.52;;;9.80;99.90;;;;;;4976170;28;20371;-70
2022/10/13 05:45:31;;;;;;;42.97;19.73;;;9.80;99.90;;;;;;4975501;28;20038;-69
2022/10/13 05:47:57;;;;;;;41.80;19.33;;;9.80;99.90;;;;;;4959834;28;20430;-70
2022/10/13 05:50:23;;;;;;;36.47;19.55;;;9.80;99.90;;;;;;4959426;28;20039;-69
2022/10/13 05:52:50;;;;;;;43.15;20.85;;;9.80;99.90;;;;;;4977624;28;20051;-69
2022/10/13 05:55:17;;;;;;;44.55;21.35;;;9.80;99.90;;;;;;4947315;28;20121;-69
2022/10/13 05:57:48;;;;;;;42.10;21.33;;;9.80;99.90;;;;;;4963549;28;20141;-69
2022/10/13 06:00:17;;;;;;;43.10;20.88;;;9.90;99.90;;;;;;4979271;28;20042;-69
2022/10/13 06:03:14;;;;;;;44.72;21.02;;;9.90;99.90;;;;;;4979683;28;20053;-70
2022/10/13 06:05:42;;;;;;;35.40;18.15;;;9.90;99.90;;;;;;4963373;28;20050;-70
2022/10/13 06:08:13;;;;;;;95.35;52.92;;;9.90;99.90;;;;;;4773059;28;10001309;-71
2022/10/13 06:10:39;;;;;;;60.88;29.05;;;10.00;99.90;;;;;;4976369;28;20616;-70
2022/10/13 06:13:05;;;;;;;47.60;22.90;;;10.00;99.90;;;;;;4960383;28;20081;-70
2022/10/13 06:15:31;;;;;;;46.97;22.83;;;10.00;99.90;;;;;;4976384;28;20046;-70
2022/10/13 06:17:57;;;;;;;47.63;22.08;;;10.00;99.90;;;;;;4976166;28;20042;-70
2022/10/13 06:20:23;;;;;;;46.28;22.02;;;10.00;99.90;;;;;;4993198;28;20479;-70
2022/10/13 06:22:49;;;;;;;50.13;22.75;;;10.00;99.90;;;;;;4976868;28;20043;-69
2022/10/13 06:25:15;;;;;;;45.13;22.08;;;10.00;99.90;;;;;;4976457;28;20146;-69
2022/10/13 06:27:42;;;;;;;57.25;25.73;;;10.10;99.90;;;;;;4960460;28;20514;-69
2022/10/13 06:30:08;;;;;;;48.58;24.15;;;10.10;99.90;;;;;;4960842;28;20093;-69
2022/10/13 06:32:34;;;;;;;52.38;25.58;;;10.10;99.90;;;;;;4935376;28;20042;-70
2022/10/13 06:34:59;;;;;;;55.60;25.40;;;10.20;99.90;;;;;;4982606;28;20097;-70
2022/10/13 06:37:25;;;;;;;50.28;24.38;;;10.20;99.90;;;;;;4954112;28;20046;-70
2022/10/13 06:39:50;;;;;;;54.28;24.35;;;10.20;99.90;;;;;;4979818;28;20051;-71
2022/10/13 06:42:17;;;;;;;51.13;24.73;;;10.20;99.90;;;;;;4993424;28;20438;-71
2022/10/13 06:44:43;;;;;;;53.03;24.17;;;10.30;99.90;;;;;;4960097;28;20137;-70
2022/10/13 06:47:08;;;;;;;54.75;26.08;;;10.20;99.90;;;;;;4963326;28;20126;-71
2022/10/13 06:49:34;;;;;;;48.58;22.58;;;10.30;99.90;;;;;;4958938;28;20051;-72
2022/10/13 06:52:00;;;;;;;47.58;24.85;;;10.30;99.90;;;;;;4940343;28;20043;-70
2022/10/13 06:54:25;;;;;;;51.15;24.83;;;10.30;99.90;;;;;;4960686;28;20050;-70
2022/10/13 06:56:51;;;;;;;52.50;25.15;;;10.40;99.90;;;;;;4976166;28;20035;-70
2022/10/13 06:59:17;;;;;;;50.65;23.73;;;10.40;99.90;;;;;;4974958;28;20039;-70
2022/10/13 07:01:43;;;;;;;45.83;23.13;;;10.50;99.90;;;;;;4975743;28;20081;-71
2022/10/13 07:04:08;;;;;;;100.70;43.03;;;10.50;99.90;;;;;;4992001;28;20042;-71
2022/10/13 07:06:34;;;;;;;51.17;25.13;;;10.50;99.90;;;;;;4975793;28;20049;-71
2022/10/13 07:09:04;;;;;;;45.75;23.15;;;10.60;99.90;;;;;;4975216;28;20113;-70
2022/10/13 07:11:30;;;;;;;52.33;24.42;;;10.60;99.90;;;;;;4975880;28;20121;-70
2022/10/13 07:13:56;;;;;;;46.65;22.60;;;10.60;99.90;;;;;;4959467;28;20121;-72
2022/10/13 07:16:22;;;;;;;49.60;23.80;;;10.70;99.90;;;;;;4975193;28;20052;-70
2022/10/13 07:18:48;;;;;;;48.30;22.83;;;10.70;99.90;;;;;;4975499;28;20085;-71
2022/10/13 07:21:13;;;;;;;48.33;22.67;;;10.80;99.90;;;;;;4992058;28;20057;-71
2022/10/13 07:23:39;;;;;;;39.33;21.83;;;10.80;99.90;;;;;;4975099;28;20038;-72
2022/10/13 07:26:10;;;;;;;40.97;21.25;;;10.90;99.90;;;;;;4958979;28;20506;-70
2022/10/13 07:28:37;;;;;;;45.50;21.98;;;10.90;99.90;;;;;;4968494;28;20855;-71
2022/10/13 07:31:10;;;;;;;47.60;23.15;;;11.00;99.90;;;;;;4888596;28;20153;-71
2022/10/13 07:33:36;;;;;;;41.85;22.33;;;11.00;99.90;;;;;;4971074;28;20042;-70
2022/10/13 07:36:03;;;;;;;39.30;21.73;;;11.00;99.90;;;;;;4933023;28;20074;-71
2022/10/13 07:38:29;;;;;;;43.88;22.27;;;11.10;99.90;;;;;;4947582;28;20050;-72
2022/10/13 07:40:54;;;;;;;43.78;22.10;;;11.10;99.90;;;;;;4956045;28;20042;-71
2022/10/13 07:43:20;;;;;;;44.50;22.35;;;11.10;99.90;;;;;;4958460;28;20491;-71
2022/10/13 07:45:46;;;;;;;42.05;21.30;;;11.10;99.90;;;;;;4971241;28;20506;-71
2022/10/13 07:48:11;;;;;;;41.33;21.85;;;11.10;99.90;;;;;;4966165;28;20054;-70
2022/10/13 07:50:37;;;;;;;44.85;22.35;;;11.10;99.90;;;;;;4958494;28;20053;-71
2022/10/13 07:53:03;;;;;;;43.17;23.33;;;11.10;99.90;;;;;;4957975;28;20054;-72
2022/10/13 07:55:29;;;;;;;41.38;22.08;;;11.10;99.90;;;;;;4974633;28;20046;-70
2022/10/13 07:57:54;;;;;;;41.85;20.83;;;11.20;99.90;;;;;;4958102;28;20387;-71
2022/10/13 08:00:20;;;;;;;43.08;21.02;;;11.20;99.90;;;;;;4974502;28;20052;-70
2022/10/13 08:02:49;;;;;;;40.95;21.52;;;11.20;99.90;;;;;;4981480;28;20042;-70
2022/10/13 08:05:15;;;;;;;39.17;22.08;;;11.20;99.90;;;;;;4958709;28;20061;-70
2022/10/13 08:07:41;;;;;;;45.83;22.13;;;11.20;99.90;;;;;;4988195;28;20124;-73
2022/10/13 08:10:07;;;;;;;42.95;23.10;;;11.20;99.90;;;;;;4973919;28;20431;-71
2022/10/13 08:12:35;;;;;;;45.25;22.55;;;11.30;99.90;;;;;;4974198;28;20057;-70
2022/10/13 08:15:01;;;;;;;46.03;22.60;;;11.30;99.90;;;;;;4958454;28;20443;-71
2022/10/13 08:17:27;;;;;;;43.00;22.42;;;11.40;99.90;;;;;;4974409;28;20121;-70
2022/10/13 08:19:53;;;;;;;42.28;22.23;;;11.50;99.90;;;;;;4957790;28;20122;-70
2022/10/13 08:22:18;;;;;;;41.95;21.83;;;11.50;99.90;;;;;;4958627;28;20042;-71
2022/10/13 08:24:44;;;;;;;39.15;20.98;;;11.60;99.90;;;;;;4958239;28;20112;-71
2022/10/13 08:27:15;;;;;;;41.15;21.80;;;11.70;99.90;;;;;;4960861;28;20081;-71
2022/10/13 08:29:41;;;;;;;39.67;21.00;;;11.70;99.90;;;;;;4973849;28;20450;-71
2022/10/13 08:32:07;;;;;;;38.30;22.23;;;11.80;99.90;;;;;;4942044;28;20124;-71
2022/10/13 08:34:35;;;;;;;42.63;22.52;;;11.80;99.90;;;;;;4958019;28;20129;-70
2022/10/13 08:37:01;;;;;;;44.75;23.58;;;11.90;99.90;;;;;;4957977;28;20070;-71
2022/10/13 08:39:27;;;;;;;39.10;21.52;;;12.00;99.90;;;;;;4974660;28;20074;-70
2022/10/13 08:41:55;;;;;;;38.03;21.00;;;12.10;99.90;;;;;;4940390;28;20100;-70
2022/10/13 08:44:38;;;;;;;39.15;20.88;;;12.30;99.90;;;;;;4959354;28;20477;-71
2022/10/13 08:47:26;;;;;;;41.88;22.52;;;12.40;99.90;;;;;;4958200;28;20022;-71
2022/10/13 08:49:59;;;;;;;40.03;22.45;;;12.40;99.90;;;;;;4947844;28;20049;-71
2022/10/13 08:52:29;;;;;;;42.50;21.40;;;12.50;99.90;;;;;;4958636;28;20076;-71
2022/10/13 08:54:55;;;;;;;37.88;19.92;;;12.60;99.90;;;;;;4980040;28;20053;-70
2022/10/13 08:57:21;;;;;;;35.40;20.73;;;12.60;99.90;;;;;;4957095;28;20042;-70
2022/10/13 08:59:47;;;;;;;45.22;22.15;;;12.70;99.90;;;;;;4961841;28;20046;-70
2022/10/13 09:02:28;;;;;;;37.15;19.90;;;12.70;99.90;;;;;;4957722;28;20101;-71
2022/10/13 09:04:57;;;;;;;39.17;21.35;;;12.80;99.90;;;;;;4973558;28;20054;-71
2022/10/13 09:07:35;;;;;;;39.35;21.48;;;12.80;99.90;;;;;;4973682;28;20109;-72
2022/10/13 09:10:01;;;;;;;40.45;20.73;;;12.80;99.90;;;;;;4973966;28;20049;-71
2022/10/13 09:12:27;;;;;;;38.22;20.85;;;12.90;99.90;;;;;;4968842;28;20537;-70
2022/10/13 09:15:03;;;;;;;37.72;21.73;;;12.90;99.90;;;;;;4957533;28;20094;-70
2022/10/13 09:17:31;;;;;;;39.60;20.88;;;13.00;99.90;;;;;;4973815;28;20050;-71
2022/10/13 09:20:05;;;;;;;39.95;20.45;;;13.00;99.90;;;;;;4971775;28;20046;-70
2022/10/13 09:22:36;;;;;;;36.05;20.13;;;13.00;99.90;;;;;;4963853;28;20368;-70
2022/10/13 09:25:02;;;;;;;;;;;13.00;99.90;;;;;;4973584;28;20081;-70
2022/10/13 09:27:40;;;;;;;41.92;20.95;;;12.90;99.90;;;;;;4975310;28;19972;-70
2022/10/13 09:30:25;;;;;;;37.05;20.33;;;12.90;99.90;;;;;;4977336;28;20046;-71
2022/10/13 09:35:23;;;;;;;40.22;22.67;;;13.00;99.90;;;;;;5110270;27;20427;-71
2022/10/13 09:38:19;;;;;;;41.65;22.60;;;12.90;99.90;;;;;;4993429;27;20203;-70
2022/10/13 09:41:02;;;;;;;41.97;21.35;;;12.90;99.90;;;;;;5042488;28;20063;-69
2022/10/13 09:43:31;;;;;;;49.55;26.55;;;12.90;99.90;;;;;;5044993;28;20132;-70
2022/10/13 09:45:59;;;;;;;42.83;22.10;;;12.90;99.90;;;;;;5020098;28;20501;-69
2022/10/13 09:48:31;;;;;;;44.47;22.50;;;12.90;99.90;;;;;;5031017;28;20069;-70
2022/10/13 09:50:58;;;;;;;51.55;27.00;;;12.90;99.90;;;;;;5040763;28;20496;-68
2022/10/13 09:53:36;;;;;;;47.05;23.50;;;12.90;99.90;;;;;;5027738;28;20050;-68
2022/10/13 09:56:18;;;;;;;47.83;23.48;;;12.90;99.90;;;;;;5039274;28;20225;-68
2022/10/13 09:58:46;;;;;;;;;;;13.00;99.90;;;;;;5042532;28;20077;-69
2022/10/13 10:01:25;;;;;;;49.17;25.38;;;13.10;99.90;;;;;;5037432;28;19933;-68
2022/10/13 10:03:51;;;;;;;47.63;25.83;;;13.20;99.90;;;;;;5041799;28;20092;-70
2022/10/13 10:06:17;;;;;;;50.63;26.67;;;13.30;99.90;;;;;;5037186;28;20053;-68
2022/10/13 10:09:00;;;;;;;48.53;27.05;;;13.40;99.90;;;;;;5029520;28;20053;-69
2022/10/13 10:11:32;;;;;;;50.33;26.10;;;13.50;99.90;;;;;;5041447;28;20648;-68
2022/10/13 10:14:09;;;;;;;49.75;26.83;;;13.60;99.90;;;;;;5041550;28;20079;-69
2022/10/13 10:16:45;;;;;;;43.55;25.08;;;13.60;99.90;;;;;;5038584;28;20136;-71
2022/10/13 10:19:46;;;;;;;49.95;26.85;;;13.60;99.90;;;;;;5046197;28;20102;-69
2022/10/13 10:22:33;;;;;;;49.17;27.13;;;13.60;99.90;;;;;;5038759;28;20132;-69
2022/10/13 10:25:11;;;;;;;43.90;25.77;;;13.60;99.90;;;;;;5045679;28;20801;-70
2022/10/13 10:27:42;;;;;;;46.33;26.75;;;13.60;99.90;;;;;;5046218;28;20057;-69
2022/10/13 10:30:18;;;;;;;46.53;25.02;;;13.50;99.90;;;;;;5045932;28;20581;-70
2022/10/13 10:32:55;;;;;;;50.13;26.05;;;13.40;99.90;;;;;;5045658;28;20053;-70
2022/10/13 10:35:29;;;;;;;50.40;26.42;;;13.40;99.90;;;;;;5028963;28;20128;-70
2022/10/13 10:38:42;;;;;;;43.03;24.40;;;13.40;99.90;;;;;;5029262;28;20508;-71
2022/10/13 10:41:34;;;;;;;43.20;23.45;;;13.40;99.90;;;;;;5007143;28;20136;-72
2022/10/13 10:44:02;;;;;;;61.10;32.13;;;13.40;99.90;;;;;;5041137;28;20497;-71
2022/10/13 10:46:33;;;;;;;43.05;24.48;;;13.40;99.90;;;;;;5019022;28;20053;-70
2022/10/13 10:49:10;;;;;;;45.03;23.25;;;13.40;99.90;;;;;;5028263;28;20057;-70
2022/10/13 10:51:38;;;;;;;44.40;25.42;;;13.40;99.90;;;;;;5031016;28;20056;-71
2022/10/13 10:54:28;;;;;;;48.20;25.63;;;13.50;99.90;;;;;;5026604;28;20042;-71
2022/10/13 10:57:00;;;;;;;41.67;24.10;;;13.60;99.90;;;;;;5030635;28;20103;-71
2022/10/13 10:59:45;;;;;;;40.08;23.98;;;13.60;99.90;;;;;;5014924;28;20409;-71
2022/10/13 11:02:11;;;;;;;41.60;23.92;;;13.60;99.90;;;;;;5028317;28;20068;-71
2022/10/13 11:04:40;;;;;;;36.63;22.48;;;13.60;99.90;;;;;;5029712;28;20516;-70
2022/10/13 11:07:22;;;;;;;37.55;23.40;;;13.50;99.90;;;;;;5014311;28;20137;-70
2022/10/13 11:09:49;;;;;;;38.72;24.48;;;13.50;99.90;;;;;;5028534;28;20041;-71
2022/10/13 11:12:17;;;;;;;43.25;23.95;;;13.50;99.90;;;;;;5027784;28;20060;-71
2022/10/13 11:15:01;;;;;;;41.22;24.33;;;13.50;99.90;;;;;;5025184;28;20393;-71
2022/10/13 11:17:36;;;;;;;46.47;24.65;;;13.50;99.90;;;;;;5012560;28;20054;-71
2022/10/13 11:20:20;;;;;;;44.15;24.10;;;13.50;99.90;;;;;;5019513;28;20046;-71
2022/10/13 11:22:58;;;;;;;44.25;23.67;;;13.50;99.90;;;;;;5003907;28;20037;-72
2022/10/13 11:25:42;;;;;;;47.70;23.25;;;13.50;99.90;;;;;;5007720;28;20050;-71
2022/10/13 11:28:19;;;;;;;42.25;23.60;;;13.50;99.90;;;;;;5014606;28;20499;-73
2022/10/13 11:30:54;;;;;;;40.08;21.73;;;13.50;99.90;;;;;;5013547;28;20046;-71
2022/10/13 11:33:44;;;;;;;42.33;24.92;;;13.50;99.90;;;;;;5013931;28;20046;-71
2022/10/13 11:36:49;;;;;;;48.63;26.08;;;13.60;99.90;;;;;;5011151;28;20133;-71
2022/10/13 11:39:37;;;;;;;45.03;25.15;;;13.60;99.90;;;;;;5013415;28;20052;-71
2022/10/13 11:42:33;;;;;;;48.70;25.23;;;13.70;99.90;;;;;;5014451;28;20049;-71
2022/10/13 11:45:03;;;;;;;43.75;24.48;;;13.70;99.90;;;;;;5010339;28;20112;-72
2022/10/13 11:47:52;;;;;;;51.65;26.60;;;13.80;99.90;;;;;;5013508;28;20042;-71
2022/10/13 11:50:37;;;;;;;49.67;25.13;;;13.80;99.90;;;;;;5026865;28;20088;-71
2022/10/13 11:53:30;;;;;;;46.17;25.95;;;13.90;99.90;;;;;;5013094;28;20082;-74
2022/10/13 11:56:00;;;;;;;45.63;25.48;;;13.90;99.90;;;;;;4996309;28;20049;-71
2022/10/13 11:58:29;;;;;;;47.13;27.08;;;13.90;99.90;;;;;;4995674;28;20081;-71
2022/10/13 12:00:56;;;;;;;42.00;24.65;;;14.00;99.90;;;;;;5014407;28;20085;-72
2022/10/13 12:03:37;;;;;;;45.72;25.90;;;14.10;99.90;;;;;;5012709;28;20050;-72
2022/10/13 12:06:04;;;;;;;36.28;22.60;;;14.10;99.90;;;;;;5014429;28;20059;-72
2022/10/13 12:08:34;;;;;;;40.08;22.42;;;14.10;99.90;;;;;;5012480;28;20526;-71
2022/10/13 12:11:03;;;;;;;39.90;22.98;;;14.10;99.90;;;;;;5014225;28;20084;-72
2022/10/13 12:13:31;;;;;;;40.10;23.58;;;14.10;99.90;;;;;;5012456;28;20046;-71
2022/10/13 12:16:06;;;;;;;41.47;23.52;;;14.10;99.90;;;;;;4998059;28;20041;-71
2022/10/13 12:18:34;;;;;;;35.50;21.60;;;14.20;99.90;;;;;;5014439;28;20046;-72
2022/10/13 12:21:20;;;;;;;39.92;23.75;;;14.10;99.90;;;;;;5021771;28;20079;-71
2022/10/13 12:23:50;;;;;;;44.38;24.10;;;14.10;99.90;;;;;;5004132;28;20051;-71
2022/10/13 12:26:23;;;;;;;45.30;24.35;;;14.10;99.90;;;;;;5025649;28;20099;-71
2022/10/13 12:28:52;;;;;;;43.22;22.85;;;14.10;99.90;;;;;;5020294;28;20049;-71
2022/10/13 12:31:23;;;;;;;47.05;24.98;;;14.00;99.90;;;;;;5025309;28;20037;-71
2022/10/13 12:33:57;;;;;;;46.00;25.63;;;14.00;99.90;;;;;;5003229;28;20061;-71
2022/10/13 12:36:34;;;;;;;47.20;25.15;;;14.00;99.90;;;;;;5018413;28;20524;-72
2022/10/13 12:39:12;;;;;;;85.28;40.78;;;14.00;99.90;;;;;;4999989;28;20482;-71
2022/10/13 12:41:42;;;;;;;51.30;26.15;;;14.00;99.90;;;;;;5021554;28;20616;-72
2022/10/13 12:44:23;;;;;;;51.83;27.08;;;14.00;99.90;;;;;;4999968;28;20054;-71
2022/10/13 12:46:52;;;;;;;55.45;26.63;;;14.00;99.90;;;;;;5006141;28;20136;-71
2022/10/13 12:49:27;;;;;;;53.60;28.65;;;14.10;99.90;;;;;;5015564;28;20437;-72
2022/10/13 12:52:07;;;;;;;53.15;26.45;;;14.10;99.90;;;;;;5020245;28;20041;-71